| time (UTC) | temp F | wind direction | speed MPH | gust MPH | rain 1hr in | rain 24hr in | rain mn in | humidity % | barometer mb |
| 20260509123658 | 48 | 243 | 2.0 | 3.0 | 0.05 | 0.17 | 0.17 | 99 | 1039.4 |
| 20260509123155 | 47 | 270 | 2.0 | 2.0 | 0.05 | 0.17 | 0.17 | 99 | 1039.4 |
| 20260509122650 | 47 | 225 | 5.0 | 5.0 | 0.02 | 0.16 | 0.16 | 99 | 1039.5 |
| 20260509122148 | 47 | 265 | 2.0 | 3.0 | 0.05 | 0.16 | 0.16 | 99 | 1039.8 |
| 20260509121644 | 47 | 270 | 2.0 | 3.0 | 0.07 | 0.15 | 0.15 | 99 | 1039.4 |
| 20260509121142 | 47 | 275 | 2.0 | 4.0 | 0.09 | 0.15 | 0.15 | 99 | 1039.5 |
| 20260509120640 | 47 | 270 | 2.0 | 3.0 | 0.09 | 0.14 | 0.14 | 99 | 1039.4 |
| 20260509120138 | 46 | 232 | 4.0 | 6.0 | 0.09 | 0.13 | 0.13 | 99 | 1039.8 |
| 20260509115635 | 46 | 280 | 2.0 | 4.0 | 0.09 | 0.12 | 0.12 | 99 | 1039.6 |
| 20260509115133 | 46 | 279 | 2.0 | 3.0 | 0.09 | 0.11 | 0.11 | 99 | 1040.0 |
| 20260509114631 | 46 | 284 | 3.0 | 3.0 | 0.12 | 0.11 | 0.11 | 99 | 1040.0 |
| 20260509114129 | 46 | 275 | 2.0 | 3.0 | 0.09 | 0.10 | 0.10 | 99 | 1040.0 |
| 20260509113627 | 46 | 285 | 2.0 | 2.0 | 0.07 | 0.09 | 0.09 | 99 | 1039.8 |
| 20260509113124 | 46 | 286 | 2.0 | 2.0 | 0.07 | 0.08 | 0.08 | 99 | 1039.9 |
| 20260509112620 | 46 | 261 | 2.0 | 2.0 | 0.05 | 0.07 | 0.07 | 99 | 1039.8 |
| 20260509112118 | 46 | 291 | 0.0 | 2.0 | 0.05 | 0.07 | 0.07 | 99 | 1039.9 |
| 20260509111615 | 46 | 278 | 0.0 | 3.0 | 0.09 | 0.07 | 0.07 | 99 | 1039.8 |
| 20260509111112 | 46 | 257 | 1.0 | 2.0 | 0.09 | 0.06 | 0.06 | 99 | 1039.8 |
| 20260509110609 | 45 | 285 | 0.0 | 2.0 | 0.09 | 0.05 | 0.05 | 99 | 1039.8 |
| 20260509110106 | 45 | 276 | 1.0 | 2.0 | 0.09 | 0.04 | 0.04 | 99 | 1039.8 |
| 20260509105604 | 45 | 292 | 2.0 | 3.0 | 0.09 | 0.04 | 0.04 | 99 | 1039.8 |
| 20260509105101 | 45 | 287 | 2.0 | 4.0 | 0.07 | 0.03 | 0.03 | 99 | 1039.5 |
| 20260509104558 | 45 | 270 | 1.0 | 2.0 | 0.07 | 0.02 | 0.02 | 99 | 1039.8 |
| 20260509104055 | 45 | 276 | 1.0 | 3.0 | 0.02 | 0.01 | 0.01 | 99 | 1039.8 |
| 20260509103553 | 45 | 293 | 2.0 | 3.0 | 0.00 | 0.01 | 0.01 | 99 | 1039.6 |
| 20260509103051 | 45 | 289 | 2.0 | 3.0 | 0.00 | 0.01 | 0.01 | 99 | 1039.6 |
| 20260509102547 | 45 | 265 | 2.0 | 3.0 | 0.00 | 0.01 | 0.01 | 99 | 1039.3 |
| 20260509102045 | 44 | 283 | 1.0 | 3.0 | 0.00 | 0.01 | 0.01 | 99 | 1039.4 |
| 20260509101541 | 44 | 286 | 2.0 | 2.0 | 0.02 | 0.01 | 0.01 | 99 | 1039.6 |
| 20260509101038 | 44 | 276 | 1.0 | 3.0 | 0.02 | 0.01 | 0.01 | 99 | 1039.6 |
| 20260509100535 | 44 | 252 | 2.0 | 4.0 | 0.00 | 0.00 | 0.00 | 99 | 1039.6 |
| 20260509100032 | 44 | 255 | 2.0 | 3.0 | 0.00 | 0.00 | 0.00 | 99 | 1039.4 |
| 20260509095529 | 44 | 246 | 3.0 | 3.0 | 0.00 | 0.00 | 0.00 | 99 | 1039.5 |
| 20260509095026 | 44 | 275 | 2.0 | 3.0 | 0.00 | 0.00 | 0.00 | 99 | 1039.5 |
| 20260509094522 | 44 | 270 | 0.0 | 3.0 | 0.00 | 0.00 | 0.00 | 99 | 1039.4 |
| 20260509094020 | 44 | 270 | 2.0 | 2.0 | 0.00 | 0.00 | 0.00 | 99 | 1039.4 |
| 20260509093518 | 44 | 229 | 1.0 | 6.0 | 0.00 | 0.00 | 0.00 | 99 | 1039.3 |
| 20260509093015 | 43 | 285 | 2.0 | 3.0 | 0.00 | 0.00 | 0.00 | 99 | 1039.3 |
| 20260509092513 | 43 | 280 | 2.0 | 2.0 | 0.00 | 0.00 | 0.00 | 99 | 1039.3 |
| 20260509092012 | 43 | 286 | 2.0 | 2.0 | 0.00 | 0.00 | 0.00 | 99 | 1039.5 |
| 20260509091508 | 43 | 247 | 2.0 | 4.0 | 0.00 | 0.00 | 0.00 | 99 | 1039.6 |
| 20260509091005 | 43 | 191 | 1.0 | 3.0 | 0.00 | 0.00 | 0.00 | 99 | 1039.4 |
| 20260509090502 | 43 | 246 | 1.0 | 4.0 | 0.00 | 0.00 | 0.00 | 99 | 1039.6 |
| 20260509090000 | 43 | 210 | 2.0 | 5.0 | 0.00 | 0.00 | 0.00 | 99 | 1039.6 |
| 20260509085457 | 42 | 261 | 2.0 | 3.0 | 0.00 | 0.00 | 0.00 | 99 | 1039.4 |
| 20260509084953 | 42 | 260 | 2.0 | 3.0 | 0.00 | 0.00 | 0.00 | 99 | 1039.5 |
| 20260509084450 | 42 | 264 | 2.0 | 2.0 | 0.00 | 0.00 | 0.00 | 99 | 1039.8 |
| 20260509083947 | 42 | 270 | 2.0 | 2.0 | 0.00 | 0.00 | 0.00 | 99 | 1039.8 |
| 20260509083444 | 42 | 270 | 2.0 | 2.0 | 0.00 | 0.00 | 0.00 | 99 | 1039.9 |
| 20260509082941 | 42 | 275 | 2.0 | 3.0 | 0.00 | 0.00 | 0.00 | 99 | 1040.0 |
| 20260509082438 | 42 | 285 | 2.0 | 2.0 | 0.00 | 0.00 | 0.00 | 99 | 1039.8 |
| 20260509081935 | 42 | 270 | 2.0 | 2.0 | 0.00 | 0.00 | 0.00 | 99 | 1039.6 |
| 20260509081432 | 42 | 264 | 1.0 | 3.0 | 0.00 | 0.00 | 0.00 | 99 | 1039.8 |
| 20260509080929 | 42 | 270 | 1.0 | 4.0 | 0.00 | 0.00 | 0.00 | 99 | 1039.3 |
| 20260509080427 | 42 | 270 | 2.0 | 2.0 | 0.00 | 0.00 | 0.00 | 99 | 1039.9 |
| 20260509075925 | 42 | 251 | 2.0 | 3.0 | 0.00 | 0.00 | 0.00 | 99 | 1040.0 |
| 20260509075422 | 42 | 275 | 2.0 | 3.0 | 0.00 | 0.00 | 0.00 | 99 | 1040.1 |
| 20260509074920 | 42 | 253 | 2.0 | 2.0 | 0.00 | 0.00 | 0.00 | 99 | 1040.1 |
| 20260509074417 | 41 | 270 | 1.0 | 2.0 | 0.00 | 0.00 | 0.00 | 99 | 1040.1 |
| 20260509073913 | 41 | 270 | 2.0 | 2.0 | 0.00 | 0.00 | 0.00 | 99 | 1040.2 |
| 20260509073410 | 41 | 270 | 1.0 | 2.0 | 0.00 | 0.00 | 0.00 | 99 | 1040.3 |
| 20260509072906 | 41 | 261 | 2.0 | 3.0 | 0.00 | 0.00 | 0.00 | 99 | 1040.2 |
| 20260509072403 | 41 | 285 | 0.0 | 2.0 | 0.00 | 0.00 | 0.00 | 99 | 1040.5 |
| 20260509071859 | 41 | 276 | 1.0 | 2.0 | 0.00 | 0.00 | 0.00 | 99 | 1040.4 |
| 20260509071357 | 41 | 264 | 2.0 | 2.0 | 0.02 | 0.00 | 0.00 | 99 | 1040.2 |
| 20260509070854 | 41 | 263 | 1.0 | 3.0 | 0.02 | 0.00 | 0.00 | 99 | 1040.3 |
| 20260509070351 | 41 | 270 | 1.0 | 2.0 | 0.00 | 0.00 | 0.00 | 99 | 1040.4 |
| 20260509065846 | 41 | 270 | 1.0 | 2.0 | 0.00 | 0.00 | 0.00 | 99 | 1040.4 |
| 20260509065343 | 41 | 253 | 2.0 | 3.0 | 0.00 | 0.00 | 0.00 | 99 | 1040.4 |
| 20260509064839 | 41 | 254 | 0.0 | 3.0 | 0.00 | 0.00 | 0.00 | 99 | 1040.3 |
| 20260509064337 | 41 | 251 | 2.0 | 2.0 | 0.00 | 0.00 | 0.00 | 99 | 1040.4 |
| 20260509063834 | 40 | 251 | 1.0 | 2.0 | 0.00 | 0.00 | 0.00 | 99 | 1040.6 |
| 20260509063330 | 40 | 265 | 2.0 | 2.0 | 0.00 | 0.00 | 0.00 | 99 | 1040.6 |
| 20260509062828 | 40 | 257 | 1.0 | 3.0 | 0.00 | 0.00 | 0.00 | 99 | 1040.6 |
| 20260509062324 | 39 | 249 | 1.0 | 3.0 | 0.00 | 0.00 | 0.00 | 99 | 1040.7 |
| 20260509061822 | 39 | 270 | 2.0 | 3.0 | 0.00 | 0.00 | 0.00 | 99 | 1040.7 |
| 20260509061320 | 39 | 270 | 1.0 | 2.0 | 0.00 | 0.00 | 0.00 | 99 | 1040.8 |
| 20260509060816 | 39 | 270 | 1.0 | 2.0 | 0.00 | 0.00 | 0.00 | 99 | 1040.7 |
| 20260509060313 | 39 | 264 | 1.0 | 2.0 | 0.00 | 0.00 | 0.00 | 99 | 1041.0 |
| 20260509055808 | 39 | 283 | 3.0 | 3.0 | 0.00 | 0.00 | 0.00 | 99 | 1041.1 |
| 20260509055306 | 39 | 278 | 1.0 | 2.0 | 0.00 | 0.00 | 0.00 | 99 | 1040.9 |
| 20260509054801 | 39 | 270 | 1.0 | 2.0 | 0.00 | 0.00 | 0.00 | 99 | 1041.2 |
| 20260509054258 | 38 | 281 | 2.0 | 2.0 | 0.00 | 0.00 | 0.00 | 99 | 1041.2 |
| 20260509053757 | 38 | 263 | 1.0 | 2.0 | 0.00 | 0.00 | 0.00 | 99 | 1041.2 |
| 20260509053253 | 38 | 270 | 2.0 | 2.0 | 0.00 | 0.00 | 0.00 | 99 | 1041.2 |
| 20260509052751 | 38 | 276 | 2.0 | 2.0 | 0.00 | 0.00 | 0.00 | 99 | 1041.1 |
| 20260509052249 | 38 | 261 | 2.0 | 3.0 | 0.00 | 0.00 | 0.00 | 99 | 1041.2 |
| 20260509051746 | 38 | 270 | 2.0 | 2.0 | 0.00 | 0.00 | 0.00 | 99 | 1041.1 |
| 20260509051244 | 38 | 270 | 2.0 | 2.0 | 0.00 | 0.00 | 0.00 | 99 | 1041.3 |
| 20260509050740 | 37 | 270 | 0.0 | 2.0 | 0.00 | 0.00 | 0.00 | 99 | 1041.2 |
| 20260509050237 | 37 | 264 | 1.0 | 2.0 | 0.00 | 0.00 | 0.00 | 99 | 1041.2 |
| 20260509045735 | 37 | 254 | 2.0 | 2.0 | 0.00 | 0.00 | 0.00 | 99 | 1041.2 |
| 20260509045231 | 37 | 255 | 1.0 | 2.0 | 0.00 | 0.00 | 0.00 | 99 | 1041.2 |
| 20260509044729 | 36 | 257 | 2.0 | 3.0 | 0.00 | 0.00 | 0.00 | 99 | 1041.3 |
| 20260509044226 | 36 | 259 | 2.0 | 2.0 | 0.00 | 0.00 | 0.00 | 99 | 1041.5 |
| 20260509043722 | 36 | 277 | 0.0 | 2.0 | 0.00 | 0.00 | 0.00 | 99 | 1041.1 |
| 20260509043218 | 36 | 287 | 1.0 | 2.0 | 0.00 | 0.00 | 0.00 | 99 | 1041.2 |
| 20260509042715 | 35 | 267 | 3.0 | 3.0 | 0.00 | 0.00 | 0.00 | 99 | 1041.3 |
| 20260509042211 | 35 | 287 | 1.0 | 2.0 | 0.00 | 0.00 | 0.00 | 99 | 1041.1 |
| 20260509041708 | 36 | 233 | 2.0 | 2.0 | 0.00 | 0.00 | 0.00 | 99 | 1041.2 |
| 20260509041205 | 35 | 243 | 2.0 | 2.0 | 0.00 | 0.00 | 0.00 | 99 | 1041.0 |
| 20260509040703 | 36 | 270 | 1.0 | 2.0 | 0.00 | 0.00 | 0.00 | 99 | 1041.2 |
| 20260509040200 | 36 | 270 | 2.0 | 2.0 | 0.00 | 0.00 | 0.00 | 99 | 1041.4 |
| 20260509035656 | 36 | 261 | 2.0 | 2.0 | 0.00 | 0.06 | 0.06 | 99 | 1041.3 |
| 20260509035153 | 36 | 257 | 2.0 | 3.0 | 0.00 | 0.06 | 0.06 | 99 | 1041.5 |
| 20260509034651 | 36 | 270 | 2.0 | 2.0 | 0.00 | 0.06 | 0.06 | 99 | 1041.6 |
| 20260509034148 | 37 | 262 | 1.0 | 2.0 | 0.00 | 0.06 | 0.06 | 99 | 1041.4 |
| 20260509033645 | 37 | 243 | 2.0 | 2.0 | 0.00 | 0.06 | 0.06 | 99 | 1041.5 |
| 20260509033142 | 36 | 248 | 2.0 | 2.0 | 0.00 | 0.06 | 0.06 | 99 | 1041.5 |
| 20260509032639 | 37 | 270 | 2.0 | 2.0 | 0.00 | 0.06 | 0.06 | 99 | 1041.6 |
| 20260509032136 | 37 | 258 | 1.0 | 2.0 | 0.00 | 0.06 | 0.06 | 99 | 1041.5 |
| 20260509031634 | 37 | 246 | 0.0 | 3.0 | 0.00 | 0.06 | 0.06 | 99 | 1041.7 |
| 20260509031131 | 37 | 270 | 1.0 | 2.0 | 0.00 | 0.06 | 0.06 | 98 | 1041.4 |
| 20260509030629 | 37 | 265 | 2.0 | 2.0 | 0.00 | 0.06 | 0.06 | 98 | 1041.5 |
| 20260509030126 | 38 | 246 | 1.0 | 2.0 | 0.00 | 0.06 | 0.06 | 98 | 1041.6 |
| 20260509025622 | 38 | 260 | 2.0 | 3.0 | 0.00 | 0.06 | 0.06 | 97 | 1041.5 |
| 20260509025118 | 38 | 246 | 1.0 | 2.0 | 0.00 | 0.06 | 0.06 | 97 | 1041.4 |
| 20260509024613 | 39 | 275 | 2.0 | 4.0 | 0.00 | 0.06 | 0.06 | 97 | 1041.6 |
| 20260509024109 | 39 | 270 | 2.0 | 2.0 | 0.00 | 0.06 | 0.06 | 97 | 1041.6 |
| 20260509023608 | 39 | 249 | 1.0 | 3.0 | 0.00 | 0.06 | 0.06 | 97 | 1041.8 |
| 20260509023104 | 39 | 265 | 2.0 | 3.0 | 0.00 | 0.06 | 0.06 | 97 | 1041.7 |
| 20260509022600 | 39 | 261 | 3.0 | 3.0 | 0.00 | 0.06 | 0.06 | 97 | 1041.6 |
| 20260509022059 | 40 | 295 | 2.0 | 2.0 | 0.00 | 0.06 | 0.06 | 97 | 1041.5 |
| 20260509021555 | 40 | 264 | 2.0 | 2.0 | 0.00 | 0.06 | 0.06 | 96 | 1041.6 |
| 20260509021052 | 40 | 253 | 2.0 | 3.0 | 0.00 | 0.06 | 0.06 | 96 | 1041.8 |
| 20260509020551 | 41 | 262 | 0.0 | 2.0 | 0.00 | 0.06 | 0.06 | 95 | 1041.6 |
| 20260509020047 | 41 | 254 | 0.0 | 2.0 | 0.00 | 0.06 | 0.06 | 94 | 1041.7 |
| 20260509015547 | 42 | 282 | 1.0 | 2.0 | 0.00 | 0.06 | 0.06 | 93 | 1041.5 |
| 20260509015043 | 42 | 281 | 2.0 | 2.0 | 0.00 | 0.06 | 0.06 | 94 | 1041.6 |
| 20260509014540 | 43 | 258 | 1.0 | 3.0 | 0.00 | 0.06 | 0.06 | 94 | 1041.6 |
| 20260509014036 | 43 | 264 | 2.0 | 2.0 | 0.00 | 0.06 | 0.06 | 94 | 1041.6 |
| 20260509013533 | 43 | 270 | 1.0 | 2.0 | 0.00 | 0.06 | 0.06 | 94 | 1041.5 |
| 20260509013029 | 43 | 270 | 2.0 | 2.0 | 0.00 | 0.06 | 0.06 | 94 | 1041.7 |
| 20260509012526 | 43 | 270 | 2.0 | 2.0 | 0.00 | 0.06 | 0.06 | 94 | 1041.5 |
| 20260509012022 | 43 | 275 | 2.0 | 2.0 | 0.00 | 0.06 | 0.06 | 94 | 1041.2 |
| 20260509011520 | 42 | 261 | 2.0 | 2.0 | 0.00 | 0.06 | 0.06 | 94 | 1041.2 |
| 20260509011017 | 42 | 270 | 0.0 | 2.0 | 0.00 | 0.06 | 0.06 | 93 | 1041.0 |
| 20260509010515 | 42 | 266 | 2.0 | 3.0 | 0.00 | 0.06 | 0.06 | 93 | 1041.2 |
| 20260509010011 | 42 | 261 | 2.0 | 3.0 | 0.00 | 0.06 | 0.06 | 93 | 1041.1 |
| 20260509005510 | 42 | 260 | 2.0 | 2.0 | 0.00 | 0.06 | 0.06 | 93 | 1040.9 |
| 20260509005009 | 42 | 254 | 2.0 | 2.0 | 0.00 | 0.06 | 0.06 | 93 | 1040.9 |
| 20260509004506 | 42 | 270 | 2.0 | 2.0 | 0.00 | 0.06 | 0.06 | 92 | 1040.8 |
| 20260509004004 | 42 | 250 | 2.0 | 2.0 | 0.00 | 0.06 | 0.06 | 91 | 1040.8 |
| 20260509003502 | 43 | 270 | 2.0 | 2.0 | 0.00 | 0.06 | 0.06 | 91 | 1040.9 |
| 20260509002958 | 43 | 265 | 2.0 | 2.0 | 0.00 | 0.06 | 0.06 | 90 | 1040.8 |
| 20260509002456 | 43 | 251 | 2.0 | 2.0 | 0.00 | 0.06 | 0.06 | 91 | 1040.5 |
| 20260509001953 | 44 | 270 | 0.0 | 2.0 | 0.00 | 0.06 | 0.06 | 90 | 1040.6 |
| 20260509001450 | 44 | 254 | 2.0 | 2.0 | 0.00 | 0.06 | 0.06 | 89 | 1040.6 |
| 20260509000946 | 45 | 243 | 2.0 | 2.0 | 0.00 | 0.06 | 0.06 | 88 | 1040.5 |
| 20260509000447 | 45 | 265 | 2.0 | 2.0 | 0.00 | 0.06 | 0.06 | 87 | 1040.5 |
| 20260508235940 | 46 | 258 | 1.0 | 3.0 | 0.00 | 0.06 | 0.06 | 84 | 1040.5 |
| 20260508235439 | 46 | 270 | 2.0 | 2.0 | 0.00 | 0.06 | 0.06 | 84 | 1040.5 |
| 20260508234935 | 47 | 249 | 1.0 | 2.0 | 0.00 | 0.06 | 0.06 | 83 | 1040.4 |
| 20260508234432 | 47 | 270 | 2.0 | 2.0 | 0.00 | 0.06 | 0.06 | 81 | 1040.2 |
| 20260508233929 | 48 | 251 | 2.0 | 2.0 | 0.00 | 0.06 | 0.06 | 78 | 1040.3 |
| 20260508233429 | 48 | 264 | 1.0 | 2.0 | 0.00 | 0.06 | 0.06 | 78 | 1040.0 |
| 20260508232925 | 49 | 275 | 2.0 | 3.0 | 0.00 | 0.06 | 0.06 | 76 | 1040.2 |
| 20260508232422 | 49 | 270 | 2.0 | 3.0 | 0.00 | 0.06 | 0.06 | 75 | 1040.0 |
| 20260508231920 | 50 | 260 | 2.0 | 3.0 | 0.00 | 0.06 | 0.06 | 73 | 1039.9 |
| 20260508231416 | 51 | 254 | 2.0 | 3.0 | 0.00 | 0.06 | 0.06 | 72 | 1039.9 |
| 20260508230914 | 51 | 270 | 2.0 | 3.0 | 0.00 | 0.06 | 0.06 | 71 | 1040.2 |
| 20260508230410 | 53 | 277 | 3.0 | 3.0 | 0.00 | 0.06 | 0.06 | 67 | 1039.9 |
| 20260508225907 | 55 | 270 | 2.0 | 3.0 | 0.00 | 0.06 | 0.06 | 66 | 1040.1 |
| 20260508225403 | 55 | 261 | 2.0 | 4.0 | 0.00 | 0.06 | 0.06 | 58 | 1040.1 |
| 20260508224901 | 56 | 275 | 2.0 | 3.0 | 0.00 | 0.06 | 0.06 | 63 | 1040.2 |
| 20260508224358 | 57 | 263 | 3.0 | 4.0 | 0.00 | 0.06 | 0.06 | 60 | 1040.3 |
| 20260508223856 | 56 | 296 | 3.0 | 4.0 | 0.00 | 0.06 | 0.06 | 63 | 1040.2 |
| 20260508223354 | 55 | 276 | 3.0 | 4.0 | 0.00 | 0.06 | 0.06 | 66 | 1040.3 |
| 20260508222851 | 55 | 264 | 3.0 | 5.0 | 0.00 | 0.06 | 0.06 | 60 | 1040.3 |
| 20260508222348 | 55 | 266 | 2.0 | 4.0 | 0.00 | 0.06 | 0.06 | 62 | 1040.2 |
| 20260508221844 | 55 | 258 | 4.0 | 4.0 | 0.00 | 0.06 | 0.06 | 61 | 1040.1 |
| 20260508221340 | 56 | 270 | 2.0 | 3.0 | 0.00 | 0.06 | 0.06 | 57 | 1040.2 |
| 20260508220836 | 57 | 255 | 3.0 | 3.0 | 0.00 | 0.06 | 0.06 | 55 | 1040.0 |
| 20260508220333 | 58 | 312 | 2.0 | 3.0 | 0.00 | 0.06 | 0.06 | 58 | 1040.1 |
| 20260508215829 | 59 | 242 | 9.0 | 9.0 | 0.00 | 0.06 | 0.06 | 53 | 1040.2 |
| 20260508215326 | 60 | 255 | 3.0 | 3.0 | 0.00 | 0.06 | 0.06 | 52 | 1040.2 |
| 20260508214823 | 59 | 278 | 2.0 | 3.0 | 0.00 | 0.06 | 0.06 | 52 | 1040.3 |
| 20260508214320 | 56 | 296 | 3.0 | 4.0 | 0.00 | 0.06 | 0.06 | 60 | 1040.2 |
| 20260508213817 | 57 | 286 | 2.0 | 3.0 | 0.00 | 0.06 | 0.06 | 61 | 1040.3 |
| 20260508213314 | 57 | 257 | 0.0 | 2.0 | 0.00 | 0.06 | 0.06 | 53 | 1040.5 |
| 20260508212810 | 58 | 270 | 3.0 | 3.0 | 0.00 | 0.06 | 0.06 | 55 | 1040.2 |
| 20260508212306 | 58 | 292 | 2.0 | 4.0 | 0.00 | 0.06 | 0.06 | 57 | 1040.3 |
| 20260508211802 | 58 | 266 | 2.0 | 3.0 | 0.00 | 0.06 | 0.06 | 55 | 1040.3 |
| 20260508211258 | 59 | 262 | 0.0 | 3.0 | 0.00 | 0.06 | 0.06 | 53 | 1040.4 |
| 20260508210756 | 59 | 270 | 2.0 | 3.0 | 0.00 | 0.06 | 0.06 | 51 | 1040.2 |
| 20260508210252 | 57 | 275 | 2.0 | 3.0 | 0.00 | 0.06 | 0.06 | 55 | 1040.3 |
| 20260508205749 | 58 | 270 | 2.0 | 3.0 | 0.00 | 0.06 | 0.06 | 56 | 1040.2 |
| 20260508205245 | 57 | 315 | 2.0 | 3.0 | 0.00 | 0.06 | 0.06 | 57 | 1040.4 |
| 20260508204742 | 56 | 270 | 2.0 | 4.0 | 0.00 | 0.06 | 0.06 | 58 | 1040.6 |
| 20260508204238 | 56 | 290 | 2.0 | 7.0 | 0.00 | 0.06 | 0.06 | 56 | 1040.3 |
| 20260508203734 | 56 | 265 | 2.0 | 3.0 | 0.00 | 0.06 | 0.06 | 56 | 1040.5 |
| 20260508203231 | 56 | 255 | 3.0 | 6.0 | 0.00 | 0.06 | 0.06 | 52 | 1040.6 |
| 20260508202727 | 58 | 285 | 2.0 | 3.0 | 0.00 | 0.06 | 0.06 | 57 | 1040.5 |
| 20260508202224 | 58 | 297 | 2.0 | 4.0 | 0.00 | 0.06 | 0.06 | 52 | 1040.4 |
| 20260508201721 | 59 | 254 | 2.0 | 4.0 | 0.00 | 0.06 | 0.06 | 48 | 1040.7 |
| 20260508201217 | 60 | 304 | 3.0 | 5.0 | 0.00 | 0.06 | 0.06 | 52 | 1040.5 |
| 20260508200714 | 58 | 229 | 3.0 | 8.0 | 0.00 | 0.06 | 0.06 | 50 | 1040.6 |
| 20260508200211 | 57 | 303 | 2.0 | 5.0 | 0.00 | 0.06 | 0.06 | 51 | 1040.6 |
| 20260508195708 | 55 | 264 | 2.0 | 10.0 | 0.00 | 0.06 | 0.06 | 51 | 1040.9 |
| 20260508195204 | 57 | 285 | 2.0 | 5.0 | 0.00 | 0.06 | 0.06 | 54 | 1040.8 |
| 20260508194700 | 57 | 253 | 6.0 | 11.0 | 0.00 | 0.06 | 0.06 | 54 | 1040.8 |
| 20260508194157 | 60 | 285 | 1.0 | 5.0 | 0.00 | 0.06 | 0.06 | 50 | 1040.8 |
| 20260508193655 | 62 | 277 | 1.0 | 7.0 | 0.00 | 0.06 | 0.06 | 55 | 1041.0 |
| 20260508193151 | 61 | 270 | 1.0 | 3.0 | 0.00 | 0.06 | 0.06 | 50 | 1041.2 |
| 20260508192648 | 61 | 270 | 0.0 | 17.0 | 0.00 | 0.06 | 0.06 | 52 | 1041.2 |
| 20260508192145 | 62 | 265 | 2.0 | 7.0 | 0.00 | 0.06 | 0.06 | 53 | 1041.1 |
| 20260508191642 | 60 | 245 | 2.0 | 5.0 | 0.00 | 0.06 | 0.06 | 48 | 1041.1 |
| 20260508191138 | 60 | 313 | 3.0 | 7.0 | 0.00 | 0.06 | 0.06 | 51 | 1041.2 |
| 20260508190636 | 59 | 290 | 2.0 | 3.0 | 0.00 | 0.06 | 0.06 | 53 | 1041.1 |
| 20260508190132 | 57 | 253 | 2.0 | 5.0 | 0.00 | 0.06 | 0.06 | 55 | 1041.5 |
| 20260508185629 | 57 | 259 | 5.0 | 7.0 | 0.00 | 0.06 | 0.06 | 57 | 1041.5 |
| 20260508185127 | 60 | 289 | 3.0 | 3.0 | 0.00 | 0.06 | 0.06 | 51 | 1041.5 |
| 20260508184624 | 59 | 206 | 3.0 | 7.0 | 0.00 | 0.06 | 0.06 | 53 | 1041.4 |
| 20260508184121 | 58 | 292 | 2.0 | 8.0 | 0.00 | 0.06 | 0.06 | 56 | 1041.7 |
| 20260508183617 | 58 | 270 | 0.0 | 2.0 | 0.00 | 0.06 | 0.06 | 53 | 1041.8 |
| 20260508183113 | 57 | 186 | 1.0 | 5.0 | 0.00 | 0.06 | 0.06 | 57 | 1041.7 |
| 20260508182609 | 55 | 289 | 2.0 | 6.0 | 0.00 | 0.06 | 0.06 | 60 | 1041.9 |
| 20260508182106 | 57 | 287 | 3.0 | 5.0 | 0.00 | 0.06 | 0.06 | 65 | 1042.0 |
| 20260508181601 | 59 | 287 | 2.0 | 3.0 | 0.00 | 0.06 | 0.06 | 60 | 1042.1 |
| 20260508181059 | 56 | 279 | 2.0 | 2.0 | 0.00 | 0.06 | 0.06 | 69 | 1042.2 |
| 20260508180556 | 56 | 296 | 4.0 | 9.0 | 0.00 | 0.06 | 0.06 | 73 | 1042.0 |
| 20260508180052 | 53 | 245 | 2.0 | 3.0 | 0.00 | 0.06 | 0.06 | 70 | 1042.2 |
| 20260508175549 | 53 | 294 | 1.0 | 4.0 | 0.00 | 0.06 | 0.06 | 76 | 1042.5 |
| 20260508175046 | 50 | 294 | 5.0 | 5.0 | 0.00 | 0.06 | 0.06 | 74 | 1042.4 |
| 20260508174544 | 51 | 212 | 3.0 | 7.0 | 0.00 | 0.06 | 0.06 | 71 | 1042.4 |
| 20260508174040 | 50 | 286 | 2.0 | 6.0 | 0.00 | 0.06 | 0.06 | 75 | 1042.4 |
| 20260508173537 | 51 | 270 | 1.0 | 11.0 | 0.00 | 0.06 | 0.06 | 73 | 1042.4 |
| 20260508173033 | 51 | 252 | 5.0 | 8.0 | 0.00 | 0.06 | 0.06 | 70 | 1042.6 |
| 20260508172531 | 51 | 258 | 3.0 | 7.0 | 0.00 | 0.06 | 0.06 | 73 | 1042.3 |
| 20260508172027 | 52 | 293 | 3.0 | 5.0 | 0.00 | 0.06 | 0.06 | 77 | 1042.3 |
| 20260508171524 | 50 | 278 | 2.0 | 3.0 | 0.00 | 0.06 | 0.06 | 77 | 1042.3 |
| 20260508171020 | 50 | 281 | 4.0 | 5.0 | 0.00 | 0.06 | 0.06 | 77 | 1042.4 |
| 20260508170517 | 49 | 270 | 2.0 | 5.0 | 0.00 | 0.06 | 0.06 | 82 | 1042.6 |
| 20260508170015 | 50 | 225 | 2.0 | 8.0 | 0.00 | 0.06 | 0.06 | 75 | 1042.5 |
| 20260508165512 | 50 | 270 | 1.0 | 4.0 | 0.00 | 0.06 | 0.06 | 79 | 1042.7 |
| 20260508165009 | 49 | 242 | 5.0 | 6.0 | 0.00 | 0.06 | 0.06 | 78 | 1042.8 |
| 20260508164505 | 50 | 277 | 0.0 | 3.0 | 0.00 | 0.06 | 0.06 | 80 | 1042.7 |
| 20260508164002 | 50 | 255 | 2.0 | 2.0 | 0.00 | 0.06 | 0.06 | 84 | 1042.7 |
| 20260508163500 | 50 | 295 | 5.0 | 5.0 | 0.00 | 0.06 | 0.06 | 82 | 1042.5 |
| 20260508162955 | 51 | 135 | 2.0 | 3.0 | 0.00 | 0.06 | 0.06 | 78 | 1042.8 |
| 20260508162453 | 51 | 259 | 5.0 | 7.0 | 0.00 | 0.06 | 0.06 | 80 | 1042.8 |
| 20260508161949 | 48 | 251 | 2.0 | 6.0 | 0.00 | 0.06 | 0.06 | 84 | 1042.9 |
| 20260508161447 | 49 | 291 | 5.0 | 5.0 | 0.00 | 0.06 | 0.06 | 85 | 1042.8 |
| 20260508160944 | 48 | 239 | 5.0 | 7.0 | 0.00 | 0.06 | 0.06 | 83 | 1042.9 |
| 20260508160443 | 47 | 237 | 4.0 | 4.0 | 0.00 | 0.06 | 0.06 | 89 | 1042.8 |
| 20260508155938 | 47 | 278 | 1.0 | 2.0 | 0.00 | 0.06 | 0.06 | 89 | 1042.9 |
| 20260508155436 | 46 | 291 | 0.0 | 4.0 | 0.00 | 0.06 | 0.06 | 89 | 1042.8 |
| 20260508154932 | 46 | 279 | 2.0 | 2.0 | 0.00 | 0.06 | 0.06 | 90 | 1043.0 |
| 20260508154430 | 43 | 244 | 3.0 | 5.0 | 0.00 | 0.06 | 0.06 | 92 | 1043.2 |
| 20260508153926 | 44 | 291 | 0.0 | 5.0 | 0.00 | 0.06 | 0.06 | 95 | 1043.0 |
| 20260508153424 | 43 | 270 | 0.0 | 2.0 | 0.00 | 0.06 | 0.06 | 97 | 1043.2 |
| 20260508152920 | 42 | 229 | 3.0 | 3.0 | 0.00 | 0.06 | 0.06 | 96 | 1043.1 |
| 20260508152417 | 42 | 267 | 4.0 | 5.0 | 0.00 | 0.06 | 0.06 | 96 | 1043.1 |
| 20260508151913 | 42 | 231 | 3.0 | 5.0 | 0.00 | 0.06 | 0.06 | 97 | 1043.1 |
| 20260508151410 | 42 | 270 | 1.0 | 4.0 | 0.00 | 0.06 | 0.06 | 97 | 1043.2 |
| 20260508150906 | 42 | 275 | 2.0 | 2.0 | 0.00 | 0.06 | 0.06 | 98 | 1042.9 |
| 20260508150403 | 41 | 277 | 1.0 | 2.0 | 0.00 | 0.06 | 0.06 | 99 | 1042.8 |
| 20260508145859 | 40 | 270 | 1.0 | 3.0 | 0.00 | 0.06 | 0.06 | 98 | 1043.0 |
| 20260508145355 | 40 | 265 | 2.0 | 4.0 | 0.00 | 0.06 | 0.06 | 99 | 1043.1 |
| 20260508144852 | 40 | 263 | 4.0 | 4.0 | 0.00 | 0.06 | 0.06 | 99 | 1042.9 |
| 20260508144350 | 40 | 270 | 2.0 | 2.0 | 0.00 | 0.06 | 0.06 | 99 | 1042.7 |
| 20260508143847 | 39 | 257 | 3.0 | 4.0 | 0.00 | 0.06 | 0.06 | 99 | 1043.0 |
| 20260508143344 | 39 | 274 | 2.0 | 5.0 | 0.00 | 0.06 | 0.06 | 99 | 1043.0 |
| 20260508142841 | 39 | 256 | 3.0 | 5.0 | 0.00 | 0.06 | 0.06 | 99 | 1043.1 |
| 20260508142338 | 40 | 291 | 1.0 | 3.0 | 0.00 | 0.06 | 0.06 | 99 | 1043.3 |
| 20260508141834 | 40 | 261 | 2.0 | 5.0 | 0.00 | 0.06 | 0.06 | 99 | 1043.2 |
| 20260508141331 | 40 | 270 | 1.0 | 3.0 | 0.00 | 0.06 | 0.06 | 99 | 1042.7 |
| 20260508140829 | 41 | 265 | 2.0 | 2.0 | 0.00 | 0.06 | 0.06 | 99 | 1042.6 |
| 20260508140326 | 40 | 251 | 1.0 | 3.0 | 0.00 | 0.06 | 0.06 | 99 | 1042.7 |
| 20260508135821 | 40 | 258 | 0.0 | 2.0 | 0.02 | 0.06 | 0.06 | 99 | 1042.8 |
| 20260508135318 | 40 | 270 | 2.0 | 2.0 | 0.05 | 0.06 | 0.06 | 99 | 1042.7 |
| 20260508134814 | 40 | 283 | 1.0 | 2.0 | 0.05 | 0.06 | 0.06 | 99 | 1042.9 |
| 20260508134311 | 40 | 287 | 2.0 | 3.0 | 0.05 | 0.06 | 0.06 | 99 | 1043.0 |
| 20260508133808 | 40 | 294 | 0.0 | 2.0 | 0.02 | 0.05 | 0.05 | 99 | 1042.8 |
| 20260508133306 | 40 | 270 | 2.0 | 3.0 | 0.02 | 0.05 | 0.05 | 99 | 1043.0 |
| 20260508132803 | 40 | 270 | 2.0 | 2.0 | 0.05 | 0.05 | 0.05 | 99 | 1042.8 |
| 20260508132300 | 40 | 301 | 0.0 | 3.0 | 0.05 | 0.04 | 0.04 | 99 | 1042.8 |
| 20260508131756 | 40 | 255 | 3.0 | 3.0 | 0.05 | 0.04 | 0.04 | 98 | 1042.7 |
| 20260508131252 | 41 | 283 | 2.0 | 3.0 | 0.05 | 0.04 | 0.04 | 98 | 1042.7 |
| 20260508130749 | 41 | 287 | 2.0 | 2.0 | 0.05 | 0.03 | 0.03 | 97 | 1042.7 |
| 20260508130246 | 41 | 264 | 1.0 | 3.0 | 0.05 | 0.03 | 0.03 | 97 | 1042.5 |
| 20260508125742 | 41 | 270 | 3.0 | 5.0 | 0.07 | 0.02 | 0.02 | 95 | 1042.4 |
| 20260508125238 | 41 | 277 | 0.0 | 5.0 | 0.09 | 0.02 | 0.02 | 92 | 1042.2 |
| 20260508124737 | 42 | 283 | 2.0 | 3.0 | 0.02 | 0.01 | 0.01 | 96 | 1042.1 |
| 20260508124233 | 42 | 297 | 0.0 | 2.0 | 0.00 | 0.00 | 0.00 | 95 | 1042.0 |